sensor_id;sensor_type;location;lat;lon;timestamp;temperature;humidity
22966;DHT22;11649;48.090;9.754;2022-09-01T00:00:00;14.90;99.90
22966;DHT22;11649;48.090;9.754;2022-09-01T00:02:28;15.00;99.90
22966;DHT22;11649;48.090;9.754;2022-09-01T00:04:56;15.60;99.90
22966;DHT22;11649;48.090;9.754;2022-09-01T00:07:26;15.40;99.90
22966;DHT22;11649;48.090;9.754;2022-09-01T00:09:57;14.80;99.90
22966;DHT22;11649;48.090;9.754;2022-09-01T00:12:25;15.00;99.90
22966;DHT22;11649;48.090;9.754;2022-09-01T00:14:52;15.00;99.90
22966;DHT22;11649;48.090;9.754;2022-09-01T00:17:19;15.50;99.90
22966;DHT22;11649;48.090;9.754;2022-09-01T00:19:46;15.00;99.90
22966;DHT22;11649;48.090;9.754;2022-09-01T00:22:13;14.80;99.90
22966;DHT22;11649;48.090;9.754;2022-09-01T00:24:40;15.20;99.90
22966;DHT22;11649;48.090;9.754;2022-09-01T00:27:07;15.10;99.90
22966;DHT22;11649;48.090;9.754;2022-09-01T00:29:34;15.20;99.90
22966;DHT22;11649;48.090;9.754;2022-09-01T00:32:01;15.30;99.90
22966;DHT22;11649;48.090;9.754;2022-09-01T00:34:28;15.30;99.90
22966;DHT22;11649;48.090;9.754;2022-09-01T00:36:55;15.10;99.90
22966;DHT22;11649;48.090;9.754;2022-09-01T00:39:22;15.40;99.90
22966;DHT22;11649;48.090;9.754;2022-09-01T00:41:49;15.60;99.90
22966;DHT22;11649;48.090;9.754;2022-09-01T00:44:19;15.60;99.90
22966;DHT22;11649;48.090;9.754;2022-09-01T00:46:55;15.80;99.90
22966;DHT22;11649;48.090;9.754;2022-09-01T00:49:38;16.00;99.90
22966;DHT22;11649;48.090;9.754;2022-09-01T00:52:42;15.50;99.90
22966;DHT22;11649;48.090;9.754;2022-09-01T00:55:15;15.50;99.90
22966;DHT22;11649;48.090;9.754;2022-09-01T00:57:43;15.60;99.90
22966;DHT22;11649;48.090;9.754;2022-09-01T01:00:20;15.50;99.90
22966;DHT22;11649;48.090;9.754;2022-09-01T01:02:48;15.50;99.90
22966;DHT22;11649;48.090;9.754;2022-09-01T01:05:23;15.60;99.90
22966;DHT22;11649;48.090;9.754;2022-09-01T01:07:53;15.30;99.90
22966;DHT22;11649;48.090;9.754;2022-09-01T01:10:22;15.50;99.90
22966;DHT22;11649;48.090;9.754;2022-09-01T01:12:52;15.20;99.90
22966;DHT22;11649;48.090;9.754;2022-09-01T01:15:19;15.10;99.90
22966;DHT22;11649;48.090;9.754;2022-09-01T01:17:46;15.30;99.90
22966;DHT22;11649;48.090;9.754;2022-09-01T01:20:14;15.40;99.90
22966;DHT22;11649;48.090;9.754;2022-09-01T01:25:50;15.20;99.90
22966;DHT22;11649;48.090;9.754;2022-09-01T01:28:20;15.20;99.90
22966;DHT22;11649;48.090;9.754;2022-09-01T01:30:54;15.30;99.90
22966;DHT22;11649;48.090;9.754;2022-09-01T01:33:25;15.20;99.90
22966;DHT22;11649;48.090;9.754;2022-09-01T01:35:53;15.50;99.90
22966;DHT22;11649;48.090;9.754;2022-09-01T01:38:24;15.10;99.90
22966;DHT22;11649;48.090;9.754;2022-09-01T01:40:51;15.20;99.90
22966;DHT22;11649;48.090;9.754;2022-09-01T01:43:20;15.20;99.90
22966;DHT22;11649;48.090;9.754;2022-09-01T01:45:49;15.00;99.90
22966;DHT22;11649;48.090;9.754;2022-09-01T01:48:19;15.10;99.90
22966;DHT22;11649;48.090;9.754;2022-09-01T01:50:51;15.50;99.90
22966;DHT22;11649;48.090;9.754;2022-09-01T01:53:19;15.80;99.90
22966;DHT22;11649;48.090;9.754;2022-09-01T01:55:47;15.70;99.90
22966;DHT22;11649;48.090;9.754;2022-09-01T01:58:20;15.40;99.90
22966;DHT22;11649;48.090;9.754;2022-09-01T02:00:50;15.10;99.90
22966;DHT22;11649;48.090;9.754;2022-09-01T02:03:20;15.60;99.90
22966;DHT22;11649;48.090;9.754;2022-09-01T02:05:50;15.40;99.90
22966;DHT22;11649;48.090;9.754;2022-09-01T02:08:18;15.30;99.90
22966;DHT22;11649;48.090;9.754;2022-09-01T02:10:50;15.40;99.90
22966;DHT22;11649;48.090;9.754;2022-09-01T02:13:18;15.20;99.90
22966;DHT22;11649;48.090;9.754;2022-09-01T02:15:49;15.00;99.90
22966;DHT22;11649;48.090;9.754;2022-09-01T02:18:25;15.10;99.90
22966;DHT22;11649;48.090;9.754;2022-09-01T02:20:54;15.20;99.90
22966;DHT22;11649;48.090;9.754;2022-09-01T02:23:24;15.30;99.90
22966;DHT22;11649;48.090;9.754;2022-09-01T02:25:54;15.20;99.90
22966;DHT22;11649;48.090;9.754;2022-09-01T02:28:42;15.20;99.90
22966;DHT22;11649;48.090;9.754;2022-09-01T02:31:10;15.40;99.90
22966;DHT22;11649;48.090;9.754;2022-09-01T02:33:38;15.20;99.90
22966;DHT22;11649;48.090;9.754;2022-09-01T02:36:11;15.30;99.90
22966;DHT22;11649;48.090;9.754;2022-09-01T02:38:40;15.20;99.90
22966;DHT22;11649;48.090;9.754;2022-09-01T02:41:18;15.20;99.90
22966;DHT22;11649;48.090;9.754;2022-09-01T02:43:49;15.30;99.90
22966;DHT22;11649;48.090;9.754;2022-09-01T02:46:16;15.70;99.90
22966;DHT22;11649;48.090;9.754;2022-09-01T02:48:44;16.20;99.90
22966;DHT22;11649;48.090;9.754;2022-09-01T02:51:16;15.50;99.90
22966;DHT22;11649;48.090;9.754;2022-09-01T02:53:44;15.50;99.90
22966;DHT22;11649;48.090;9.754;2022-09-01T02:56:15;15.50;99.90
22966;DHT22;11649;48.090;9.754;2022-09-01T02:58:44;15.50;99.90
22966;DHT22;11649;48.090;9.754;2022-09-01T03:01:19;15.50;99.90
22966;DHT22;11649;48.090;9.754;2022-09-01T03:03:49;15.50;99.90
22966;DHT22;11649;48.090;9.754;2022-09-01T03:06:17;15.80;99.90
22966;DHT22;11649;48.090;9.754;2022-09-01T03:08:51;15.90;99.90
22966;DHT22;11649;48.090;9.754;2022-09-01T03:11:18;15.50;99.90
22966;DHT22;11649;48.090;9.754;2022-09-01T03:13:45;15.80;99.90
22966;DHT22;11649;48.090;9.754;2022-09-01T03:16:12;15.80;99.90
22966;DHT22;11649;48.090;9.754;2022-09-01T03:18:39;15.40;99.90
22966;DHT22;11649;48.090;9.754;2022-09-01T03:21:09;15.50;99.90
22966;DHT22;11649;48.090;9.754;2022-09-01T03:23:39;15.70;99.90
22966;DHT22;11649;48.090;9.754;2022-09-01T03:26:05;15.50;99.90
22966;DHT22;11649;48.090;9.754;2022-09-01T03:28:32;15.50;99.90
22966;DHT22;11649;48.090;9.754;2022-09-01T03:30:59;16.00;99.90
22966;DHT22;11649;48.090;9.754;2022-09-01T03:33:27;15.50;99.90
22966;DHT22;11649;48.090;9.754;2022-09-01T03:35:54;15.40;99.90
22966;DHT22;11649;48.090;9.754;2022-09-01T03:38:22;15.40;99.90
22966;DHT22;11649;48.090;9.754;2022-09-01T03:40:53;15.50;99.90
22966;DHT22;11649;48.090;9.754;2022-09-01T03:43:20;15.60;99.90
22966;DHT22;11649;48.090;9.754;2022-09-01T03:45:50;15.40;99.90
22966;DHT22;11649;48.090;9.754;2022-09-01T03:48:17;15.60;99.90
22966;DHT22;11649;48.090;9.754;2022-09-01T03:50:45;16.00;99.90
22966;DHT22;11649;48.090;9.754;2022-09-01T03:53:18;15.70;99.90
22966;DHT22;11649;48.090;9.754;2022-09-01T03:55:46;15.60;99.90
22966;DHT22;11649;48.090;9.754;2022-09-01T03:58:15;15.60;99.90
22966;DHT22;11649;48.090;9.754;2022-09-01T04:00:53;15.60;99.90
22966;DHT22;11649;48.090;9.754;2022-09-01T04:03:23;15.60;99.90
22966;DHT22;11649;48.090;9.754;2022-09-01T04:05:55;15.40;99.90
22966;DHT22;11649;48.090;9.754;2022-09-01T04:08:22;15.50;99.90
22966;DHT22;11649;48.090;9.754;2022-09-01T04:11:08;15.50;99.90
22966;DHT22;11649;48.090;9.754;2022-09-01T04:13:37;15.60;99.90
22966;DHT22;11649;48.090;9.754;2022-09-01T04:16:05;15.50;99.90
22966;DHT22;11649;48.090;9.754;2022-09-01T04:18:55;15.50;99.90
22966;DHT22;11649;48.090;9.754;2022-09-01T04:21:22;15.60;99.90
22966;DHT22;11649;48.090;9.754;2022-09-01T04:23:48;15.60;99.90
22966;DHT22;11649;48.090;9.754;2022-09-01T04:26:15;15.30;99.90
22966;DHT22;11649;48.090;9.754;2022-09-01T04:28:48;15.60;99.90
22966;DHT22;11649;48.090;9.754;2022-09-01T04:31:19;15.50;99.90
22966;DHT22;11649;48.090;9.754;2022-09-01T04:33:49;15.50;99.90
22966;DHT22;11649;48.090;9.754;2022-09-01T04:36:24;15.70;99.90
22966;DHT22;11649;48.090;9.754;2022-09-01T04:38:58;15.50;99.90
22966;DHT22;11649;48.090;9.754;2022-09-01T04:41:30;15.50;99.90
22966;DHT22;11649;48.090;9.754;2022-09-01T04:43:59;15.50;99.90
22966;DHT22;11649;48.090;9.754;2022-09-01T04:46:32;15.50;99.90
22966;DHT22;11649;48.090;9.754;2022-09-01T04:49:05;16.00;99.90
22966;DHT22;11649;48.090;9.754;2022-09-01T04:51:41;15.60;99.90
22966;DHT22;11649;48.090;9.754;2022-09-01T04:54:09;15.60;99.90
22966;DHT22;11649;48.090;9.754;2022-09-01T04:56:42;15.50;99.90
22966;DHT22;11649;48.090;9.754;2022-09-01T04:59:11;15.60;99.90
22966;DHT22;11649;48.090;9.754;2022-09-01T05:01:39;15.50;99.90
22966;DHT22;11649;48.090;9.754;2022-09-01T05:04:20;15.60;99.90
22966;DHT22;11649;48.090;9.754;2022-09-01T05:06:51;15.90;99.90
22966;DHT22;11649;48.090;9.754;2022-09-01T05:09:23;15.30;99.90
22966;DHT22;11649;48.090;9.754;2022-09-01T05:11:51;15.50;99.90
22966;DHT22;11649;48.090;9.754;2022-09-01T05:14:18;15.80;99.90
22966;DHT22;11649;48.090;9.754;2022-09-01T05:16:47;15.50;99.90
22966;DHT22;11649;48.090;9.754;2022-09-01T05:19:17;15.10;99.90
22966;DHT22;11649;48.090;9.754;2022-09-01T05:21:47;15.10;99.90
22966;DHT22;11649;48.090;9.754;2022-09-01T05:24:19;15.30;99.90
22966;DHT22;11649;48.090;9.754;2022-09-01T05:26:47;15.50;99.90
22966;DHT22;11649;48.090;9.754;2022-09-01T05:29:16;15.20;99.90
22966;DHT22;11649;48.090;9.754;2022-09-01T05:31:46;15.60;99.90
22966;DHT22;11649;48.090;9.754;2022-09-01T05:34:16;15.70;99.90
22966;DHT22;11649;48.090;9.754;2022-09-01T05:36:54;15.60;99.90
22966;DHT22;11649;48.090;9.754;2022-09-01T05:39:24;15.40;99.90
22966;DHT22;11649;48.090;9.754;2022-09-01T05:41:51;15.80;99.90
22966;DHT22;11649;48.090;9.754;2022-09-01T05:44:22;15.50;99.90
22966;DHT22;11649;48.090;9.754;2022-09-01T05:46:49;15.90;99.90
22966;DHT22;11649;48.090;9.754;2022-09-01T05:49:16;15.60;99.90
22966;DHT22;11649;48.090;9.754;2022-09-01T05:51:46;16.00;99.90
22966;DHT22;11649;48.090;9.754;2022-09-01T05:54:19;15.80;99.90
22966;DHT22;11649;48.090;9.754;2022-09-01T05:56:48;15.80;99.90
22966;DHT22;11649;48.090;9.754;2022-09-01T05:59:15;15.60;99.90
22966;DHT22;11649;48.090;9.754;2022-09-01T06:01:52;15.50;99.90
22966;DHT22;11649;48.090;9.754;2022-09-01T06:04:19;16.00;99.90
22966;DHT22;11649;48.090;9.754;2022-09-01T06:06:47;15.60;99.90
22966;DHT22;11649;48.090;9.754;2022-09-01T06:09:39;15.60;99.90
22966;DHT22;11649;48.090;9.754;2022-09-01T06:12:08;15.70;99.90
22966;DHT22;11649;48.090;9.754;2022-09-01T06:14:48;15.80;99.90
22966;DHT22;11649;48.090;9.754;2022-09-01T06:17:16;15.70;99.90
22966;DHT22;11649;48.090;9.754;2022-09-01T06:19:47;15.70;99.90
22966;DHT22;11649;48.090;9.754;2022-09-01T06:22:14;15.70;99.90
22966;DHT22;11649;48.090;9.754;2022-09-01T06:24:42;15.60;99.90
22966;DHT22;11649;48.090;9.754;2022-09-01T06:27:13;16.00;99.90
22966;DHT22;11649;48.090;9.754;2022-09-01T06:29:44;15.30;99.90
22966;DHT22;11649;48.090;9.754;2022-09-01T06:32:10;15.80;99.90
22966;DHT22;11649;48.090;9.754;2022-09-01T06:34:39;15.50;99.90
22966;DHT22;11649;48.090;9.754;2022-09-01T06:37:10;16.30;99.90
22966;DHT22;11649;48.090;9.754;2022-09-01T06:39:38;15.80;99.90
22966;DHT22;11649;48.090;9.754;2022-09-01T06:42:05;15.60;99.90
22966;DHT22;11649;48.090;9.754;2022-09-01T06:44:34;15.60;99.90
22966;DHT22;11649;48.090;9.754;2022-09-01T06:47:06;15.50;99.90
22966;DHT22;11649;48.090;9.754;2022-09-01T06:49:35;15.70;99.90
22966;DHT22;11649;48.090;9.754;2022-09-01T06:52:03;15.80;99.90
22966;DHT22;11649;48.090;9.754;2022-09-01T06:54:31;15.80;99.90
22966;DHT22;11649;48.090;9.754;2022-09-01T06:57:02;15.90;99.90
22966;DHT22;11649;48.090;9.754;2022-09-01T06:59:49;15.80;99.90
22966;DHT22;11649;48.090;9.754;2022-09-01T07:02:19;15.90;99.90
22966;DHT22;11649;48.090;9.754;2022-09-01T07:04:52;15.90;99.90
22966;DHT22;11649;48.090;9.754;2022-09-01T07:07:19;15.90;99.90
22966;DHT22;11649;48.090;9.754;2022-09-01T07:10:08;15.90;99.90
22966;DHT22;11649;48.090;9.754;2022-09-01T07:12:51;16.00;99.90
22966;DHT22;11649;48.090;9.754;2022-09-01T07:15:41;16.00;99.90
22966;DHT22;11649;48.090;9.754;2022-09-01T07:18:29;16.00;99.90
22966;DHT22;11649;48.090;9.754;2022-09-01T07:20:56;15.90;99.90
22966;DHT22;11649;48.090;9.754;2022-09-01T07:23:44;16.00;99.90
22966;DHT22;11649;48.090;9.754;2022-09-01T07:26:32;16.30;99.90
22966;DHT22;11649;48.090;9.754;2022-09-01T07:29:02;15.90;99.90
22966;DHT22;11649;48.090;9.754;2022-09-01T07:31:33;16.10;99.90
22966;DHT22;11649;48.090;9.754;2022-09-01T07:34:22;15.90;99.90
22966;DHT22;11649;48.090;9.754;2022-09-01T07:37:09;16.40;99.90
22966;DHT22;11649;48.090;9.754;2022-09-01T07:39:57;16.50;99.90
22966;DHT22;11649;48.090;9.754;2022-09-01T07:42:44;16.30;99.90
22966;DHT22;11649;48.090;9.754;2022-09-01T07:45:28;16.40;99.90
22966;DHT22;11649;48.090;9.754;2022-09-01T07:47:57;16.40;99.90
22966;DHT22;11649;48.090;9.754;2022-09-01T07:50:34;16.40;99.90
22966;DHT22;11649;48.090;9.754;2022-09-01T07:53:27;16.60;99.90
22966;DHT22;11649;48.090;9.754;2022-09-01T07:55:55;16.40;99.90
22966;DHT22;11649;48.090;9.754;2022-09-01T07:58:25;16.40;99.90
22966;DHT22;11649;48.090;9.754;2022-09-01T08:00:53;16.40;99.90
22966;DHT22;11649;48.090;9.754;2022-09-01T08:03:23;16.90;99.90
22966;DHT22;11649;48.090;9.754;2022-09-01T08:05:51;16.50;99.90
22966;DHT22;11649;48.090;9.754;2022-09-01T08:08:23;17.30;99.90
22966;DHT22;11649;48.090;9.754;2022-09-01T08:10:54;16.50;99.90
22966;DHT22;11649;48.090;9.754;2022-09-01T08:13:30;16.70;99.90
22966;DHT22;11649;48.090;9.754;2022-09-01T08:16:05;16.90;99.90
22966;DHT22;11649;48.090;9.754;2022-09-01T08:18:34;17.10;99.90
22966;DHT22;11649;48.090;9.754;2022-09-01T08:21:18;17.20;99.90
22966;DHT22;11649;48.090;9.754;2022-09-01T08:23:48;17.20;99.90
22966;DHT22;11649;48.090;9.754;2022-09-01T08:26:17;17.20;99.90
22966;DHT22;11649;48.090;9.754;2022-09-01T08:28:46;17.00;99.90
22966;DHT22;11649;48.090;9.754;2022-09-01T08:31:22;17.50;99.90
22966;DHT22;11649;48.090;9.754;2022-09-01T08:33:49;17.10;99.90
22966;DHT22;11649;48.090;9.754;2022-09-01T08:36:17;17.10;99.90
22966;DHT22;11649;48.090;9.754;2022-09-01T08:38:50;17.20;99.90
22966;DHT22;11649;48.090;9.754;2022-09-01T08:41:51;17.30;99.90
22966;DHT22;11649;48.090;9.754;2022-09-01T08:45:14;17.40;99.90
22966;DHT22;11649;48.090;9.754;2022-09-01T08:47:16;17.50;99.90
22966;DHT22;11649;48.090;9.754;2022-09-01T08:49:57;17.50;99.90
22966;DHT22;11649;48.090;9.754;2022-09-01T08:52:32;17.70;99.90
22966;DHT22;11649;48.090;9.754;2022-09-01T08:57:52;17.50;99.90
22966;DHT22;11649;48.090;9.754;2022-09-01T09:00:28;17.60;99.90
22966;DHT22;11649;48.090;9.754;2022-09-01T09:03:17;17.50;99.90
22966;DHT22;11649;48.090;9.754;2022-09-01T09:06:08;17.60;99.90
22966;DHT22;11649;48.090;9.754;2022-09-01T09:08:59;17.60;99.90
22966;DHT22;11649;48.090;9.754;2022-09-01T09:11:53;17.60;99.90
22966;DHT22;11649;48.090;9.754;2022-09-01T09:17:22;17.80;99.90
22966;DHT22;11649;48.090;9.754;2022-09-01T09:19:51;18.20;99.90
22966;DHT22;11649;48.090;9.754;2022-09-01T09:22:18;18.10;99.90
22966;DHT22;11649;48.090;9.754;2022-09-01T09:25:07;18.30;99.90
22966;DHT22;11649;48.090;9.754;2022-09-01T09:27:39;17.90;99.90
22966;DHT22;11649;48.090;9.754;2022-09-01T09:30:22;17.90;99.90
22966;DHT22;11649;48.090;9.754;2022-09-01T09:35:49;18.00;99.90
22966;DHT22;11649;48.090;9.754;2022-09-01T09:38:21;18.20;99.90
22966;DHT22;11649;48.090;9.754;2022-09-01T09:43:55;18.50;99.90
22966;DHT22;11649;48.090;9.754;2022-09-01T09:54:38;18.40;99.90
22966;DHT22;11649;48.090;9.754;2022-09-01T09:59:46;19.30;99.90
22966;DHT22;11649;48.090;9.754;2022-09-01T10:02:38;18.70;99.90
22966;DHT22;11649;48.090;9.754;2022-09-01T10:05:25;18.70;99.40
22966;DHT22;11649;48.090;9.754;2022-09-01T10:07:54;18.80;98.70
22966;DHT22;11649;48.090;9.754;2022-09-01T10:12:55;18.70;96.30
22966;DHT22;11649;48.090;9.754;2022-09-01T10:15:25;18.90;99.90
22966;DHT22;11649;48.090;9.754;2022-09-01T10:18:06;19.00;98.70
22966;DHT22;11649;48.090;9.754;2022-09-01T10:21:03;18.90;99.90
22966;DHT22;11649;48.090;9.754;2022-09-01T10:23:35;19.00;99.90
22966;DHT22;11649;48.090;9.754;2022-09-01T10:26:21;19.00;99.90
22966;DHT22;11649;48.090;9.754;2022-09-01T10:29:05;18.90;95.90
22966;DHT22;11649;48.090;9.754;2022-09-01T10:31:39;18.80;93.20
22966;DHT22;11649;48.090;9.754;2022-09-01T10:34:07;18.80;99.90
22966;DHT22;11649;48.090;9.754;2022-09-01T10:36:37;18.90;98.50
22966;DHT22;11649;48.090;9.754;2022-09-01T10:39:15;19.00;96.30
22966;DHT22;11649;48.090;9.754;2022-09-01T10:41:55;19.10;95.50
22966;DHT22;11649;48.090;9.754;2022-09-01T10:44:29;19.30;96.30
22966;DHT22;11649;48.090;9.754;2022-09-01T10:47:09;19.40;94.80
22966;DHT22;11649;48.090;9.754;2022-09-01T10:55:16;19.80;94.30
22966;DHT22;11649;48.090;9.754;2022-09-01T11:00:59;19.60;92.40
22966;DHT22;11649;48.090;9.754;2022-09-01T11:03:53;19.40;94.00
22966;DHT22;11649;48.090;9.754;2022-09-01T11:09:41;18.90;95.30
22966;DHT22;11649;48.090;9.754;2022-09-01T11:14:59;19.00;98.10
22966;DHT22;11649;48.090;9.754;2022-09-01T11:17:33;19.00;94.50
22966;DHT22;11649;48.090;9.754;2022-09-01T11:20:04;19.20;93.50
22966;DHT22;11649;48.090;9.754;2022-09-01T11:26:43;19.50;95.40
22966;DHT22;11649;48.090;9.754;2022-09-01T11:28:49;19.40;94.80
22966;DHT22;11649;48.090;9.754;2022-09-01T11:31:27;19.50;95.10
22966;DHT22;11649;48.090;9.754;2022-09-01T11:34:01;19.40;96.70
22966;DHT22;11649;48.090;9.754;2022-09-01T11:47:19;19.60;89.10
22966;DHT22;11649;48.090;9.754;2022-09-01T11:49:50;19.80;93.70
22966;DHT22;11649;48.090;9.754;2022-09-01T11:52:19;20.00;89.10
22966;DHT22;11649;48.090;9.754;2022-09-01T11:54:46;20.00;90.90
22966;DHT22;11649;48.090;9.754;2022-09-01T11:59:53;20.10;85.10
22966;DHT22;11649;48.090;9.754;2022-09-01T12:02:27;20.20;88.70
22966;DHT22;11649;48.090;9.754;2022-09-01T12:04:55;20.20;87.30
22966;DHT22;11649;48.090;9.754;2022-09-01T12:09:55;20.40;87.90
22966;DHT22;11649;48.090;9.754;2022-09-01T12:12:37;20.20;80.70
22966;DHT22;11649;48.090;9.754;2022-09-01T12:15:17;20.10;87.70
22966;DHT22;11649;48.090;9.754;2022-09-01T12:17:45;20.00;84.90
22966;DHT22;11649;48.090;9.754;2022-09-01T12:20:30;19.90;89.40
22966;DHT22;11649;48.090;9.754;2022-09-01T12:22:59;19.60;82.10
22966;DHT22;11649;48.090;9.754;2022-09-01T12:25:30;19.50;85.30
22966;DHT22;11649;48.090;9.754;2022-09-01T12:28:01;19.60;86.20
22966;DHT22;11649;48.090;9.754;2022-09-01T12:30:30;19.80;88.00
22966;DHT22;11649;48.090;9.754;2022-09-01T12:33:02;20.00;90.40
22966;DHT22;11649;48.090;9.754;2022-09-01T12:35:51;20.30;90.80
22966;DHT22;11649;48.090;9.754;2022-09-01T12:38:28;20.60;85.50
22966;DHT22;11649;48.090;9.754;2022-09-01T12:40:56;20.40;83.60
22966;DHT22;11649;48.090;9.754;2022-09-01T12:43:30;20.40;86.60
22966;DHT22;11649;48.090;9.754;2022-09-01T12:45:58;20.40;84.70
22966;DHT22;11649;48.090;9.754;2022-09-01T12:48:37;20.40;79.40
22966;DHT22;11649;48.090;9.754;2022-09-01T12:53:53;20.10;78.40
22966;DHT22;11649;48.090;9.754;2022-09-01T12:56:32;20.10;87.80
22966;DHT22;11649;48.090;9.754;2022-09-01T12:59:11;20.30;85.50
22966;DHT22;11649;48.090;9.754;2022-09-01T13:01:41;20.20;85.70
22966;DHT22;11649;48.090;9.754;2022-09-01T13:04:19;20.20;87.00
22966;DHT22;11649;48.090;9.754;2022-09-01T13:06:53;20.20;80.80
22966;DHT22;11649;48.090;9.754;2022-09-01T13:09:21;20.20;86.60
22966;DHT22;11649;48.090;9.754;2022-09-01T13:11:48;20.10;86.00
22966;DHT22;11649;48.090;9.754;2022-09-01T13:14:32;19.90;84.70
22966;DHT22;11649;48.090;9.754;2022-09-01T13:16:59;19.80;79.20
22966;DHT22;11649;48.090;9.754;2022-09-01T13:19:26;19.80;85.50
22966;DHT22;11649;48.090;9.754;2022-09-01T13:21:56;19.80;83.70
22966;DHT22;11649;48.090;9.754;2022-09-01T13:24:23;19.80;80.00
22966;DHT22;11649;48.090;9.754;2022-09-01T13:26:55;19.90;82.70
22966;DHT22;11649;48.090;9.754;2022-09-01T13:29:42;20.10;82.30
22966;DHT22;11649;48.090;9.754;2022-09-01T13:32:10;20.20;81.40
22966;DHT22;11649;48.090;9.754;2022-09-01T13:34:48;20.20;74.60
22966;DHT22;11649;48.090;9.754;2022-09-01T13:37:20;20.10;76.20
22966;DHT22;11649;48.090;9.754;2022-09-01T13:39:47;20.30;76.50
22966;DHT22;11649;48.090;9.754;2022-09-01T13:42:14;20.60;73.50
22966;DHT22;11649;48.090;9.754;2022-09-01T13:44:42;20.70;80.00
22966;DHT22;11649;48.090;9.754;2022-09-01T13:47:10;21.00;75.20
22966;DHT22;11649;48.090;9.754;2022-09-01T13:49:58;21.10;70.50
22966;DHT22;11649;48.090;9.754;2022-09-01T13:52:38;21.50;72.60
22966;DHT22;11649;48.090;9.754;2022-09-01T13:55:09;22.00;69.00
22966;DHT22;11649;48.090;9.754;2022-09-01T13:57:36;22.50;66.10
22966;DHT22;11649;48.090;9.754;2022-09-01T14:00:07;23.50;65.40
22966;DHT22;11649;48.090;9.754;2022-09-01T14:02:42;24.30;58.80
22966;DHT22;11649;48.090;9.754;2022-09-01T14:05:17;24.50;55.50
22966;DHT22;11649;48.090;9.754;2022-09-01T14:07:44;25.10;54.40
22966;DHT22;11649;48.090;9.754;2022-09-01T14:10:11;26.00;56.40
22966;DHT22;11649;48.090;9.754;2022-09-01T14:12:41;25.90;54.60
22966;DHT22;11649;48.090;9.754;2022-09-01T14:15:09;25.30;53.00
22966;DHT22;11649;48.090;9.754;2022-09-01T14:17:41;25.30;55.20
22966;DHT22;11649;48.090;9.754;2022-09-01T14:20:16;26.00;54.50
22966;DHT22;11649;48.090;9.754;2022-09-01T14:22:44;25.80;54.10
22966;DHT22;11649;48.090;9.754;2022-09-01T14:25:12;24.90;53.50
22966;DHT22;11649;48.090;9.754;2022-09-01T14:27:40;24.00;54.30
22966;DHT22;11649;48.090;9.754;2022-09-01T14:30:16;24.50;55.60
22966;DHT22;11649;48.090;9.754;2022-09-01T14:32:44;25.60;53.90
22966;DHT22;11649;48.090;9.754;2022-09-01T14:35:11;26.80;47.90
22966;DHT22;11649;48.090;9.754;2022-09-01T14:37:38;27.20;49.00
22966;DHT22;11649;48.090;9.754;2022-09-01T14:40:06;27.70;48.00
22966;DHT22;11649;48.090;9.754;2022-09-01T14:42:34;27.20;47.80
22966;DHT22;11649;48.090;9.754;2022-09-01T14:45:04;26.00;47.90
22966;DHT22;11649;48.090;9.754;2022-09-01T14:47:30;24.60;53.30
22966;DHT22;11649;48.090;9.754;2022-09-01T14:49:59;25.10;55.00
22966;DHT22;11649;48.090;9.754;2022-09-01T14:52:26;25.90;51.30
22966;DHT22;11649;48.090;9.754;2022-09-01T14:54:53;26.30;49.80
22966;DHT22;11649;48.090;9.754;2022-09-01T14:57:20;25.50;50.20
22966;DHT22;11649;48.090;9.754;2022-09-01T15:00:05;24.80;54.30
22966;DHT22;11649;48.090;9.754;2022-09-01T15:02:36;23.70;55.90
22966;DHT22;11649;48.090;9.754;2022-09-01T15:05:04;23.80;55.70
22966;DHT22;11649;48.090;9.754;2022-09-01T15:07:31;24.30;55.30
22966;DHT22;11649;48.090;9.754;2022-09-01T15:09:58;24.20;54.90
22966;DHT22;11649;48.090;9.754;2022-09-01T15:12:25;23.60;55.40
22966;DHT22;11649;48.090;9.754;2022-09-01T15:14:57;24.00;55.10
22966;DHT22;11649;48.090;9.754;2022-09-01T15:17:28;24.80;56.30
22966;DHT22;11649;48.090;9.754;2022-09-01T15:19:55;25.10;56.50
22966;DHT22;11649;48.090;9.754;2022-09-01T15:22:41;25.20;54.20
22966;DHT22;11649;48.090;9.754;2022-09-01T15:25:08;24.90;54.10
22966;DHT22;11649;48.090;9.754;2022-09-01T15:27:35;24.10;56.40
22966;DHT22;11649;48.090;9.754;2022-09-01T15:30:07;23.60;57.40
22966;DHT22;11649;48.090;9.754;2022-09-01T15:32:45;23.10;58.20
22966;DHT22;11649;48.090;9.754;2022-09-01T15:35:12;22.80;61.50
22966;DHT22;11649;48.090;9.754;2022-09-01T15:37:39;22.90;60.10
22966;DHT22;11649;48.090;9.754;2022-09-01T15:40:07;23.50;60.20
22966;DHT22;11649;48.090;9.754;2022-09-01T15:42:35;24.40;59.20
22966;DHT22;11649;48.090;9.754;2022-09-01T15:45:05;24.90;55.40
22966;DHT22;11649;48.090;9.754;2022-09-01T15:47:33;25.30;53.70
22966;DHT22;11649;48.090;9.754;2022-09-01T15:50:02;25.40;52.10
22966;DHT22;11649;48.090;9.754;2022-09-01T15:52:30;25.20;52.00
22966;DHT22;11649;48.090;9.754;2022-09-01T15:54:59;24.40;54.10
22966;DHT22;11649;48.090;9.754;2022-09-01T15:57:26;23.40;58.00
22966;DHT22;11649;48.090;9.754;2022-09-01T15:59:53;22.70;62.70
22966;DHT22;11649;48.090;9.754;2022-09-01T16:02:20;22.10;65.70
22966;DHT22;11649;48.090;9.754;2022-09-01T16:04:49;22.10;65.40
22966;DHT22;11649;48.090;9.754;2022-09-01T16:07:16;22.50;64.70
22966;DHT22;11649;48.090;9.754;2022-09-01T16:09:42;22.40;62.80
22966;DHT22;11649;48.090;9.754;2022-09-01T16:12:09;22.40;61.60
22966;DHT22;11649;48.090;9.754;2022-09-01T16:14:36;22.10;61.10
22966;DHT22;11649;48.090;9.754;2022-09-01T16:17:08;22.20;61.50
22966;DHT22;11649;48.090;9.754;2022-09-01T16:24:46;22.80;59.30
22966;DHT22;11649;48.090;9.754;2022-09-01T16:27:16;22.60;60.70
22966;DHT22;11649;48.090;9.754;2022-09-01T16:29:50;22.20;62.00
22966;DHT22;11649;48.090;9.754;2022-09-01T16:32:20;22.10;61.90
22966;DHT22;11649;48.090;9.754;2022-09-01T16:34:50;21.80;63.70
22966;DHT22;11649;48.090;9.754;2022-09-01T16:42:51;21.10;68.40
22966;DHT22;11649;48.090;9.754;2022-09-01T16:48:19;21.00;69.40
22966;DHT22;11649;48.090;9.754;2022-09-01T16:51:00;21.20;70.20
22966;DHT22;11649;48.090;9.754;2022-09-01T16:56:07;21.00;69.10
22966;DHT22;11649;48.090;9.754;2022-09-01T16:58:49;20.80;70.40
22966;DHT22;11649;48.090;9.754;2022-09-01T17:01:51;20.70;71.20
22966;DHT22;11649;48.090;9.754;2022-09-01T17:04:36;20.80;71.00
22966;DHT22;11649;48.090;9.754;2022-09-01T17:07:27;20.70;70.10
22966;DHT22;11649;48.090;9.754;2022-09-01T17:10:05;20.70;72.10
22966;DHT22;11649;48.090;9.754;2022-09-01T17:12:45;20.40;71.60
22966;DHT22;11649;48.090;9.754;2022-09-01T17:15:17;20.20;76.90
22966;DHT22;11649;48.090;9.754;2022-09-01T17:17:52;20.20;78.50
22966;DHT22;11649;48.090;9.754;2022-09-01T17:20:28;19.90;79.60
22966;DHT22;11649;48.090;9.754;2022-09-01T17:22:58;20.10;80.50